sensor_id;sensor_type;location;lat;lon;timestamp;temperature;humidity
29501;DHT22;16450;50.288;10.966;2023-01-16T00:02:20;2.90;99.90
29501;DHT22;16450;50.288;10.966;2023-01-16T00:05:20;2.90;99.90
29501;DHT22;16450;50.288;10.966;2023-01-16T00:08:21;2.90;99.90
29501;DHT22;16450;50.288;10.966;2023-01-16T00:11:22;2.90;99.90
29501;DHT22;16450;50.288;10.966;2023-01-16T00:14:23;2.90;99.90
29501;DHT22;16450;50.288;10.966;2023-01-16T00:17:23;2.90;99.90
29501;DHT22;16450;50.288;10.966;2023-01-16T00:20:24;2.90;99.90
29501;DHT22;16450;50.288;10.966;2023-01-16T00:23:25;2.90;99.90
29501;DHT22;16450;50.288;10.966;2023-01-16T00:26:27;2.90;99.90
29501;DHT22;16450;50.288;10.966;2023-01-16T00:29:28;2.90;99.90
29501;DHT22;16450;50.288;10.966;2023-01-16T00:32:29;2.80;99.90
29501;DHT22;16450;50.288;10.966;2023-01-16T00:35:30;2.90;99.90
29501;DHT22;16450;50.288;10.966;2023-01-16T00:38:31;2.90;99.90
29501;DHT22;16450;50.288;10.966;2023-01-16T00:41:33;2.80;99.90
29501;DHT22;16450;50.288;10.966;2023-01-16T00:44:34;2.80;99.90
29501;DHT22;16450;50.288;10.966;2023-01-16T00:47:34;2.90;99.90
29501;DHT22;16450;50.288;10.966;2023-01-16T00:50:35;2.80;99.90
29501;DHT22;16450;50.288;10.966;2023-01-16T00:53:36;2.80;99.90
29501;DHT22;16450;50.288;10.966;2023-01-16T00:56:37;2.80;99.90
29501;DHT22;16450;50.288;10.966;2023-01-16T00:59:37;2.80;99.90
29501;DHT22;16450;50.288;10.966;2023-01-16T01:02:38;2.70;99.90
29501;DHT22;16450;50.288;10.966;2023-01-16T01:05:39;2.70;99.90
29501;DHT22;16450;50.288;10.966;2023-01-16T01:08:40;2.70;99.90
29501;DHT22;16450;50.288;10.966;2023-01-16T01:11:40;2.70;99.90
29501;DHT22;16450;50.288;10.966;2023-01-16T01:14:41;2.70;99.90
29501;DHT22;16450;50.288;10.966;2023-01-16T01:17:42;2.70;99.90
29501;DHT22;16450;50.288;10.966;2023-01-16T01:20:43;2.70;99.90
29501;DHT22;16450;50.288;10.966;2023-01-16T01:23:43;2.70;99.90
29501;DHT22;16450;50.288;10.966;2023-01-16T01:26:44;2.60;99.90
29501;DHT22;16450;50.288;10.966;2023-01-16T01:29:45;2.60;99.90
29501;DHT22;16450;50.288;10.966;2023-01-16T01:32:46;2.60;99.90
29501;DHT22;16450;50.288;10.966;2023-01-16T01:35:46;2.60;99.90
29501;DHT22;16450;50.288;10.966;2023-01-16T01:38:47;2.60;99.90
29501;DHT22;16450;50.288;10.966;2023-01-16T01:41:49;2.50;99.90
29501;DHT22;16450;50.288;10.966;2023-01-16T01:44:56;2.50;99.90
29501;DHT22;16450;50.288;10.966;2023-01-16T01:48:02;2.50;99.90
29501;DHT22;16450;50.288;10.966;2023-01-16T01:51:07;2.40;99.90
29501;DHT22;16450;50.288;10.966;2023-01-16T01:54:14;2.40;99.90
29501;DHT22;16450;50.288;10.966;2023-01-16T01:57:42;2.30;99.90
29501;DHT22;16450;50.288;10.966;2023-01-16T02:00:44;2.30;99.90
29501;DHT22;16450;50.288;10.966;2023-01-16T02:03:52;2.30;99.90
29501;DHT22;16450;50.288;10.966;2023-01-16T02:06:55;2.20;99.90
29501;DHT22;16450;50.288;10.966;2023-01-16T02:10:11;2.20;99.90
29501;DHT22;16450;50.288;10.966;2023-01-16T02:13:15;2.20;99.90
29501;DHT22;16450;50.288;10.966;2023-01-16T02:16:15;2.10;99.90
29501;DHT22;16450;50.288;10.966;2023-01-16T02:26:18;2.10;99.90
29501;DHT22;16450;50.288;10.966;2023-01-16T02:32:52;2.20;99.90
29501;DHT22;16450;50.288;10.966;2023-01-16T02:36:27;2.20;99.90
29501;DHT22;16450;50.288;10.966;2023-01-16T02:39:59;2.20;99.90
29501;DHT22;16450;50.288;10.966;2023-01-16T02:46:38;2.20;99.90
29501;DHT22;16450;50.288;10.966;2023-01-16T02:56:22;2.20;99.90
29501;DHT22;16450;50.288;10.966;2023-01-16T02:59:25;2.20;99.90
29501;DHT22;16450;50.288;10.966;2023-01-16T03:02:28;2.30;99.90
29501;DHT22;16450;50.288;10.966;2023-01-16T03:05:34;2.30;99.90
29501;DHT22;16450;50.288;10.966;2023-01-16T03:11:59;2.20;99.90
29501;DHT22;16450;50.288;10.966;2023-01-16T03:22:16;2.20;99.90
29501;DHT22;16450;50.288;10.966;2023-01-16T03:28:43;2.20;99.90
29501;DHT22;16450;50.288;10.966;2023-01-16T03:31:56;2.20;99.90
29501;DHT22;16450;50.288;10.966;2023-01-16T03:35:08;2.20;99.90
29501;DHT22;16450;50.288;10.966;2023-01-16T03:38:11;2.20;99.90
29501;DHT22;16450;50.288;10.966;2023-01-16T03:41:16;2.20;99.90
29501;DHT22;16450;50.288;10.966;2023-01-16T03:44:34;2.30;99.90
29501;DHT22;16450;50.288;10.966;2023-01-16T03:47:40;2.20;99.90
29501;DHT22;16450;50.288;10.966;2023-01-16T03:51:06;2.20;99.90
29501;DHT22;16450;50.288;10.966;2023-01-16T03:57:24;2.20;99.90
29501;DHT22;16450;50.288;10.966;2023-01-16T04:00:39;2.20;99.90
29501;DHT22;16450;50.288;10.966;2023-01-16T04:03:48;2.20;99.90
29501;DHT22;16450;50.288;10.966;2023-01-16T04:07:01;2.20;99.90
29501;DHT22;16450;50.288;10.966;2023-01-16T04:10:10;2.20;99.90
29501;DHT22;16450;50.288;10.966;2023-01-16T04:13:28;2.20;99.90
29501;DHT22;16450;50.288;10.966;2023-01-16T04:16:32;2.20;99.90
29501;DHT22;16450;50.288;10.966;2023-01-16T04:19:34;2.20;99.90
29501;DHT22;16450;50.288;10.966;2023-01-16T04:22:37;2.20;99.90
29501;DHT22;16450;50.288;10.966;2023-01-16T04:25:38;2.30;99.90
29501;DHT22;16450;50.288;10.966;2023-01-16T04:28:39;2.30;99.90
29501;DHT22;16450;50.288;10.966;2023-01-16T04:31:40;2.30;99.90
29501;DHT22;16450;50.288;10.966;2023-01-16T04:34:41;2.30;99.90
29501;DHT22;16450;50.288;10.966;2023-01-16T04:37:42;2.30;99.90
29501;DHT22;16450;50.288;10.966;2023-01-16T04:40:42;2.30;99.90
29501;DHT22;16450;50.288;10.966;2023-01-16T04:43:43;2.30;99.90
29501;DHT22;16450;50.288;10.966;2023-01-16T04:46:44;2.30;99.90
29501;DHT22;16450;50.288;10.966;2023-01-16T04:49:44;2.30;99.90
29501;DHT22;16450;50.288;10.966;2023-01-16T04:52:46;2.30;99.90
29501;DHT22;16450;50.288;10.966;2023-01-16T04:55:47;2.30;99.90
29501;DHT22;16450;50.288;10.966;2023-01-16T04:58:48;2.30;99.90
29501;DHT22;16450;50.288;10.966;2023-01-16T05:01:50;2.30;99.90
29501;DHT22;16450;50.288;10.966;2023-01-16T05:04:51;2.30;99.90
29501;DHT22;16450;50.288;10.966;2023-01-16T05:07:52;2.30;99.90
29501;DHT22;16450;50.288;10.966;2023-01-16T05:11:32;2.30;99.90
29501;DHT22;16450;50.288;10.966;2023-01-16T05:14:33;2.30;99.90
29501;DHT22;16450;50.288;10.966;2023-01-16T05:17:33;2.30;99.90
29501;DHT22;16450;50.288;10.966;2023-01-16T05:20:34;2.30;99.90
29501;DHT22;16450;50.288;10.966;2023-01-16T05:23:35;2.30;99.90
29501;DHT22;16450;50.288;10.966;2023-01-16T05:26:38;2.30;99.90
29501;DHT22;16450;50.288;10.966;2023-01-16T05:29:39;2.30;99.90
29501;DHT22;16450;50.288;10.966;2023-01-16T05:32:39;2.30;99.90
29501;DHT22;16450;50.288;10.966;2023-01-16T05:35:40;2.40;99.90
29501;DHT22;16450;50.288;10.966;2023-01-16T05:38:41;2.30;99.90
29501;DHT22;16450;50.288;10.966;2023-01-16T05:41:42;2.40;99.90
29501;DHT22;16450;50.288;10.966;2023-01-16T05:44:43;2.30;99.90
29501;DHT22;16450;50.288;10.966;2023-01-16T05:47:44;2.40;99.90
29501;DHT22;16450;50.288;10.966;2023-01-16T05:50:44;2.40;99.90
29501;DHT22;16450;50.288;10.966;2023-01-16T05:53:51;2.40;99.90
29501;DHT22;16450;50.288;10.966;2023-01-16T05:56:52;2.40;99.90
29501;DHT22;16450;50.288;10.966;2023-01-16T05:59:53;2.40;99.90
29501;DHT22;16450;50.288;10.966;2023-01-16T06:02:54;2.40;99.90
29501;DHT22;16450;50.288;10.966;2023-01-16T06:05:54;2.40;99.90
29501;DHT22;16450;50.288;10.966;2023-01-16T06:08:55;2.40;99.90
29501;DHT22;16450;50.288;10.966;2023-01-16T06:11:56;2.40;99.90
29501;DHT22;16450;50.288;10.966;2023-01-16T06:14:57;2.50;99.90
29501;DHT22;16450;50.288;10.966;2023-01-16T06:17:58;2.40;99.90
29501;DHT22;16450;50.288;10.966;2023-01-16T06:20:58;2.50;99.90
29501;DHT22;16450;50.288;10.966;2023-01-16T06:23:59;2.50;99.90
29501;DHT22;16450;50.288;10.966;2023-01-16T06:27:00;2.50;99.90
29501;DHT22;16450;50.288;10.966;2023-01-16T06:30:00;2.50;99.90
29501;DHT22;16450;50.288;10.966;2023-01-16T06:33:01;2.50;99.90
29501;DHT22;16450;50.288;10.966;2023-01-16T06:36:02;2.50;99.90
29501;DHT22;16450;50.288;10.966;2023-01-16T06:39:03;2.50;99.90
29501;DHT22;16450;50.288;10.966;2023-01-16T06:42:04;2.50;99.90
29501;DHT22;16450;50.288;10.966;2023-01-16T06:45:06;2.50;99.90
29501;DHT22;16450;50.288;10.966;2023-01-16T06:48:06;2.50;99.90
29501;DHT22;16450;50.288;10.966;2023-01-16T06:51:08;2.50;99.90
29501;DHT22;16450;50.288;10.966;2023-01-16T06:54:10;2.50;99.90
29501;DHT22;16450;50.288;10.966;2023-01-16T06:57:11;2.50;99.90
29501;DHT22;16450;50.288;10.966;2023-01-16T07:00:13;2.50;99.90
29501;DHT22;16450;50.288;10.966;2023-01-16T07:03:14;2.50;99.90
29501;DHT22;16450;50.288;10.966;2023-01-16T07:06:14;2.50;99.90
29501;DHT22;16450;50.288;10.966;2023-01-16T07:09:15;2.50;99.90
29501;DHT22;16450;50.288;10.966;2023-01-16T07:12:16;2.50;99.90
29501;DHT22;16450;50.288;10.966;2023-01-16T07:15:17;2.40;99.90
29501;DHT22;16450;50.288;10.966;2023-01-16T07:18:36;2.40;99.90
29501;DHT22;16450;50.288;10.966;2023-01-16T07:21:56;2.50;99.90
29501;DHT22;16450;50.288;10.966;2023-01-16T07:25:25;2.50;99.90
29501;DHT22;16450;50.288;10.966;2023-01-16T07:28:28;2.40;99.90
29501;DHT22;16450;50.288;10.966;2023-01-16T07:31:31;2.50;99.90
29501;DHT22;16450;50.288;10.966;2023-01-16T07:34:33;2.50;99.90
29501;DHT22;16450;50.288;10.966;2023-01-16T07:37:35;2.50;99.90
29501;DHT22;16450;50.288;10.966;2023-01-16T07:40:36;2.50;99.90
29501;DHT22;16450;50.288;10.966;2023-01-16T07:43:37;2.50;99.90
29501;DHT22;16450;50.288;10.966;2023-01-16T07:46:37;2.50;99.90
29501;DHT22;16450;50.288;10.966;2023-01-16T07:49:38;2.60;99.90
29501;DHT22;16450;50.288;10.966;2023-01-16T07:52:39;2.60;99.90
29501;DHT22;16450;50.288;10.966;2023-01-16T07:55:40;2.60;99.90
29501;DHT22;16450;50.288;10.966;2023-01-16T07:58:40;2.60;99.90
29501;DHT22;16450;50.288;10.966;2023-01-16T08:01:43;2.60;99.90
29501;DHT22;16450;50.288;10.966;2023-01-16T08:04:46;2.60;99.90
29501;DHT22;16450;50.288;10.966;2023-01-16T08:07:46;2.60;99.90
29501;DHT22;16450;50.288;10.966;2023-01-16T08:10:47;2.60;99.90
29501;DHT22;16450;50.288;10.966;2023-01-16T08:13:48;2.60;99.90
29501;DHT22;16450;50.288;10.966;2023-01-16T08:16:49;2.60;99.90
29501;DHT22;16450;50.288;10.966;2023-01-16T08:19:50;2.60;99.90
29501;DHT22;16450;50.288;10.966;2023-01-16T08:22:51;2.60;99.90
29501;DHT22;16450;50.288;10.966;2023-01-16T08:25:52;2.50;99.90
29501;DHT22;16450;50.288;10.966;2023-01-16T08:28:53;2.60;99.90
29501;DHT22;16450;50.288;10.966;2023-01-16T08:31:54;2.50;99.90
29501;DHT22;16450;50.288;10.966;2023-01-16T08:34:54;2.50;99.90
29501;DHT22;16450;50.288;10.966;2023-01-16T08:37:55;2.40;99.90
29501;DHT22;16450;50.288;10.966;2023-01-16T08:40:56;2.40;99.90
29501;DHT22;16450;50.288;10.966;2023-01-16T08:43:57;2.40;99.90
29501;DHT22;16450;50.288;10.966;2023-01-16T08:47:22;2.30;99.90
29501;DHT22;16450;50.288;10.966;2023-01-16T08:50:43;2.30;99.90
29501;DHT22;16450;50.288;10.966;2023-01-16T08:54:03;2.30;99.90
29501;DHT22;16450;50.288;10.966;2023-01-16T08:57:04;2.30;99.90
29501;DHT22;16450;50.288;10.966;2023-01-16T09:00:06;2.30;99.90
29501;DHT22;16450;50.288;10.966;2023-01-16T09:03:07;2.30;99.90
29501;DHT22;16450;50.288;10.966;2023-01-16T09:06:08;2.40;99.90
29501;DHT22;16450;50.288;10.966;2023-01-16T09:09:09;2.40;99.90
29501;DHT22;16450;50.288;10.966;2023-01-16T09:12:10;2.50;99.90
29501;DHT22;16450;50.288;10.966;2023-01-16T09:15:30;2.50;99.90
29501;DHT22;16450;50.288;10.966;2023-01-16T09:18:31;2.70;99.90
29501;DHT22;16450;50.288;10.966;2023-01-16T09:21:32;2.70;99.90
29501;DHT22;16450;50.288;10.966;2023-01-16T09:24:33;2.70;99.90
29501;DHT22;16450;50.288;10.966;2023-01-16T09:27:34;2.80;99.90
29501;DHT22;16450;50.288;10.966;2023-01-16T09:30:35;2.80;99.90
29501;DHT22;16450;50.288;10.966;2023-01-16T09:33:36;2.90;99.90
29501;DHT22;16450;50.288;10.966;2023-01-16T09:36:41;2.90;99.90
29501;DHT22;16450;50.288;10.966;2023-01-16T09:39:42;3.00;99.90
29501;DHT22;16450;50.288;10.966;2023-01-16T09:43:02;3.10;99.90
29501;DHT22;16450;50.288;10.966;2023-01-16T09:46:28;3.20;99.90
29501;DHT22;16450;50.288;10.966;2023-01-16T09:52:47;3.60;99.90
29501;DHT22;16450;50.288;10.966;2023-01-16T09:56:09;3.70;99.90
29501;DHT22;16450;50.288;10.966;2023-01-16T09:59:43;4.00;99.90
29501;DHT22;16450;50.288;10.966;2023-01-16T10:02:45;4.20;99.90
29501;DHT22;16450;50.288;10.966;2023-01-16T10:05:58;4.40;99.90
29501;DHT22;16450;50.288;10.966;2023-01-16T10:09:18;4.50;99.90
29501;DHT22;16450;50.288;10.966;2023-01-16T10:12:23;4.70;99.90
29501;DHT22;16450;50.288;10.966;2023-01-16T10:15:31;4.70;99.90
29501;DHT22;16450;50.288;10.966;2023-01-16T10:18:54;4.80;99.90
29501;DHT22;16450;50.288;10.966;2023-01-16T10:25:31;5.10;99.90
29501;DHT22;16450;50.288;10.966;2023-01-16T10:31:45;5.20;99.90
29501;DHT22;16450;50.288;10.966;2023-01-16T10:37:57;5.30;99.90
29501;DHT22;16450;50.288;10.966;2023-01-16T10:41:03;5.30;99.90
29501;DHT22;16450;50.288;10.966;2023-01-16T10:47:51;5.30;99.90
29501;DHT22;16450;50.288;10.966;2023-01-16T10:51:10;5.40;99.90
29501;DHT22;16450;50.288;10.966;2023-01-16T10:54:11;5.40;99.90
29501;DHT22;16450;50.288;10.966;2023-01-16T10:57:17;5.50;99.90
29501;DHT22;16450;50.288;10.966;2023-01-16T11:00:27;5.30;99.90
29501;DHT22;16450;50.288;10.966;2023-01-16T11:03:39;5.30;99.90
29501;DHT22;16450;50.288;10.966;2023-01-16T11:06:40;5.30;99.90
29501;DHT22;16450;50.288;10.966;2023-01-16T11:09:43;5.20;99.90
29501;DHT22;16450;50.288;10.966;2023-01-16T11:12:45;5.20;99.90
29501;DHT22;16450;50.288;10.966;2023-01-16T11:16:21;5.10;99.90
29501;DHT22;16450;50.288;10.966;2023-01-16T11:19:42;5.10;99.90
29501;DHT22;16450;50.288;10.966;2023-01-16T11:22:47;5.10;99.90
29501;DHT22;16450;50.288;10.966;2023-01-16T11:25:50;5.10;99.90
29501;DHT22;16450;50.288;10.966;2023-01-16T11:28:53;5.10;99.90
29501;DHT22;16450;50.288;10.966;2023-01-16T11:31:58;5.20;99.90
29501;DHT22;16450;50.288;10.966;2023-01-16T11:34:59;5.20;99.90
29501;DHT22;16450;50.288;10.966;2023-01-16T11:38:01;5.30;99.90
29501;DHT22;16450;50.288;10.966;2023-01-16T11:41:05;5.40;99.90
29501;DHT22;16450;50.288;10.966;2023-01-16T11:44:21;5.40;99.90
29501;DHT22;16450;50.288;10.966;2023-01-16T11:47:43;5.50;99.90
29501;DHT22;16450;50.288;10.966;2023-01-16T11:50:48;5.50;99.90
29501;DHT22;16450;50.288;10.966;2023-01-16T11:53:50;5.50;99.90
29501;DHT22;16450;50.288;10.966;2023-01-16T11:57:10;5.50;99.90
29501;DHT22;16450;50.288;10.966;2023-01-16T12:00:40;5.50;99.90
29501;DHT22;16450;50.288;10.966;2023-01-16T12:04:06;5.40;99.30
29501;DHT22;16450;50.288;10.966;2023-01-16T12:10:24;5.40;99.90
29501;DHT22;16450;50.288;10.966;2023-01-16T12:24:50;5.30;98.70
29501;DHT22;16450;50.288;10.966;2023-01-16T12:27:51;5.40;98.90
29501;DHT22;16450;50.288;10.966;2023-01-16T12:41:23;5.30;99.70
29501;DHT22;16450;50.288;10.966;2023-01-16T12:51:53;5.20;99.00
29501;DHT22;16450;50.288;10.966;2023-01-16T12:54:53;5.20;98.60
29501;DHT22;16450;50.288;10.966;2023-01-16T12:58:11;5.20;99.00
29501;DHT22;16450;50.288;10.966;2023-01-16T13:01:25;5.10;99.60
29501;DHT22;16450;50.288;10.966;2023-01-16T13:04:37;5.10;99.30
29501;DHT22;16450;50.288;10.966;2023-01-16T13:07:46;5.10;99.20
29501;DHT22;16450;50.288;10.966;2023-01-16T13:10:52;5.10;99.30
29501;DHT22;16450;50.288;10.966;2023-01-16T13:14:13;5.10;99.80
29501;DHT22;16450;50.288;10.966;2023-01-16T13:17:21;5.10;99.90
29501;DHT22;16450;50.288;10.966;2023-01-16T13:20:22;5.10;99.40
29501;DHT22;16450;50.288;10.966;2023-01-16T13:23:29;5.10;99.90
29501;DHT22;16450;50.288;10.966;2023-01-16T13:26:31;5.10;99.80
29501;DHT22;16450;50.288;10.966;2023-01-16T13:29:48;5.10;99.80
29501;DHT22;16450;50.288;10.966;2023-01-16T13:33:03;5.10;98.50
29501;DHT22;16450;50.288;10.966;2023-01-16T13:42:39;5.10;99.50
29501;DHT22;16450;50.288;10.966;2023-01-16T13:45:41;5.20;99.80
29501;DHT22;16450;50.288;10.966;2023-01-16T13:48:58;5.20;99.90
29501;DHT22;16450;50.288;10.966;2023-01-16T13:52:02;5.20;99.00
29501;DHT22;16450;50.288;10.966;2023-01-16T13:55:03;5.20;99.90
29501;DHT22;16450;50.288;10.966;2023-01-16T13:58:23;5.20;99.90
29501;DHT22;16450;50.288;10.966;2023-01-16T14:01:30;5.20;99.50
29501;DHT22;16450;50.288;10.966;2023-01-16T14:04:31;5.20;99.30
29501;DHT22;16450;50.288;10.966;2023-01-16T14:11:22;5.10;98.20
29501;DHT22;16450;50.288;10.966;2023-01-16T14:21:02;5.10;98.40
29501;DHT22;16450;50.288;10.966;2023-01-16T14:24:19;5.10;98.20
29501;DHT22;16450;50.288;10.966;2023-01-16T14:27:36;5.10;98.10
29501;DHT22;16450;50.288;10.966;2023-01-16T14:30:38;5.00;98.60
29501;DHT22;16450;50.288;10.966;2023-01-16T14:33:44;5.00;99.40
29501;DHT22;16450;50.288;10.966;2023-01-16T14:36:50;5.00;98.40
29501;DHT22;16450;50.288;10.966;2023-01-16T14:39:55;5.00;98.80
29501;DHT22;16450;50.288;10.966;2023-01-16T14:42:57;5.00;98.80
29501;DHT22;16450;50.288;10.966;2023-01-16T14:53:18;4.90;98.40
29501;DHT22;16450;50.288;10.966;2023-01-16T14:56:40;4.80;99.00
29501;DHT22;16450;50.288;10.966;2023-01-16T15:03:14;4.60;98.50
29501;DHT22;16450;50.288;10.966;2023-01-16T15:06:17;4.50;99.00
29501;DHT22;16450;50.288;10.966;2023-01-16T15:09:19;4.40;99.40
29501;DHT22;16450;50.288;10.966;2023-01-16T15:12:20;4.30;99.40
29501;DHT22;16450;50.288;10.966;2023-01-16T15:15:24;4.20;99.60
29501;DHT22;16450;50.288;10.966;2023-01-16T15:18:26;4.10;99.80
29501;DHT22;16450;50.288;10.966;2023-01-16T15:21:45;4.00;99.90
29501;DHT22;16450;50.288;10.966;2023-01-16T15:25:07;3.90;99.90
29501;DHT22;16450;50.288;10.966;2023-01-16T15:31:46;3.80;99.70
29501;DHT22;16450;50.288;10.966;2023-01-16T15:35:13;3.70;99.90
29501;DHT22;16450;50.288;10.966;2023-01-16T15:38:15;3.60;99.80
29501;DHT22;16450;50.288;10.966;2023-01-16T15:41:21;3.60;99.90
29501;DHT22;16450;50.288;10.966;2023-01-16T15:44:43;3.60;99.90
29501;DHT22;16450;50.288;10.966;2023-01-16T15:51:12;3.50;99.90
29501;DHT22;16450;50.288;10.966;2023-01-16T15:54:16;3.50;99.90
29501;DHT22;16450;50.288;10.966;2023-01-16T15:57:17;3.50;99.90
29501;DHT22;16450;50.288;10.966;2023-01-16T16:00:41;3.50;99.90
29501;DHT22;16450;50.288;10.966;2023-01-16T16:03:47;3.50;99.90
29501;DHT22;16450;50.288;10.966;2023-01-16T16:06:49;3.50;99.90
29501;DHT22;16450;50.288;10.966;2023-01-16T16:09:54;3.50;99.90
29501;DHT22;16450;50.288;10.966;2023-01-16T16:12:55;3.50;99.90
29501;DHT22;16450;50.288;10.966;2023-01-16T16:16:02;3.50;99.90
29501;DHT22;16450;50.288;10.966;2023-01-16T16:19:34;3.50;99.90
29501;DHT22;16450;50.288;10.966;2023-01-16T16:22:35;3.50;99.90
29501;DHT22;16450;50.288;10.966;2023-01-16T16:26:04;3.50;99.90
29501;DHT22;16450;50.288;10.966;2023-01-16T16:29:14;3.50;99.90
29501;DHT22;16450;50.288;10.966;2023-01-16T16:32:17;3.50;99.90
29501;DHT22;16450;50.288;10.966;2023-01-16T16:38:40;3.50;99.90
29501;DHT22;16450;50.288;10.966;2023-01-16T16:41:46;3.50;99.90
29501;DHT22;16450;50.288;10.966;2023-01-16T16:45:22;3.50;99.90
29501;DHT22;16450;50.288;10.966;2023-01-16T16:48:28;3.50;99.90
29501;DHT22;16450;50.288;10.966;2023-01-16T16:51:30;3.60;99.90
29501;DHT22;16450;50.288;10.966;2023-01-16T16:54:32;3.60;99.90
29501;DHT22;16450;50.288;10.966;2023-01-16T16:57:41;3.60;99.90
29501;DHT22;16450;50.288;10.966;2023-01-16T17:00:43;3.60;99.90
29501;DHT22;16450;50.288;10.966;2023-01-16T17:03:47;3.60;99.90
29501;DHT22;16450;50.288;10.966;2023-01-16T17:06:49;3.70;99.90
29501;DHT22;16450;50.288;10.966;2023-01-16T17:09:51;3.70;99.90
29501;DHT22;16450;50.288;10.966;2023-01-16T17:12:52;3.70;99.90
29501;DHT22;16450;50.288;10.966;2023-01-16T17:15:56;3.70;99.90
29501;DHT22;16450;50.288;10.966;2023-01-16T17:22:05;3.70;99.90
29501;DHT22;16450;50.288;10.966;2023-01-16T17:25:10;3.70;99.90
29501;DHT22;16450;50.288;10.966;2023-01-16T17:28:18;3.70;99.90
29501;DHT22;16450;50.288;10.966;2023-01-16T17:31:19;3.70;99.90
29501;DHT22;16450;50.288;10.966;2023-01-16T17:34:20;3.70;99.90
29501;DHT22;16450;50.288;10.966;2023-01-16T17:37:21;3.70;99.90
29501;DHT22;16450;50.288;10.966;2023-01-16T17:40:22;3.70;99.90
29501;DHT22;16450;50.288;10.966;2023-01-16T17:43:22;3.70;99.90
29501;DHT22;16450;50.288;10.966;2023-01-16T17:46:42;3.70;99.90
29501;DHT22;16450;50.288;10.966;2023-01-16T17:49:43;3.70;99.90
29501;DHT22;16450;50.288;10.966;2023-01-16T17:53:02;3.80;99.90
29501;DHT22;16450;50.288;10.966;2023-01-16T17:56:05;3.80;99.90
29501;DHT22;16450;50.288;10.966;2023-01-16T17:59:06;3.80;99.90
29501;DHT22;16450;50.288;10.966;2023-01-16T18:02:09;3.90;99.90
29501;DHT22;16450;50.288;10.966;2023-01-16T18:05:10;3.90;99.90
29501;DHT22;16450;50.288;10.966;2023-01-16T18:08:10;4.00;99.90
29501;DHT22;16450;50.288;10.966;2023-01-16T18:11:11;4.10;99.90
29501;DHT22;16450;50.288;10.966;2023-01-16T18:14:31;4.20;99.90
29501;DHT22;16450;50.288;10.966;2023-01-16T18:17:50;4.20;99.90
29501;DHT22;16450;50.288;10.966;2023-01-16T18:20:51;4.30;99.90
29501;DHT22;16450;50.288;10.966;2023-01-16T18:24:12;4.30;99.90
29501;DHT22;16450;50.288;10.966;2023-01-16T18:27:15;4.40;99.90
29501;DHT22;16450;50.288;10.966;2023-01-16T18:30:16;4.40;99.90
29501;DHT22;16450;50.288;10.966;2023-01-16T18:33:17;4.40;99.90
29501;DHT22;16450;50.288;10.966;2023-01-16T18:36:21;4.40;99.90
29501;DHT22;16450;50.288;10.966;2023-01-16T18:39:24;4.50;99.80
29501;DHT22;16450;50.288;10.966;2023-01-16T18:42:43;4.50;99.90
29501;DHT22;16450;50.288;10.966;2023-01-16T18:45:44;4.50;99.90
29501;DHT22;16450;50.288;10.966;2023-01-16T18:49:03;4.50;99.90
29501;DHT22;16450;50.288;10.966;2023-01-16T18:52:23;4.50;99.90
29501;DHT22;16450;50.288;10.966;2023-01-16T18:55:42;4.50;99.90
29501;DHT22;16450;50.288;10.966;2023-01-16T18:59:02;4.50;99.90
29501;DHT22;16450;50.288;10.966;2023-01-16T19:05:26;4.50;99.90
29501;DHT22;16450;50.288;10.966;2023-01-16T19:08:29;4.40;99.90
29501;DHT22;16450;50.288;10.966;2023-01-16T19:11:30;4.50;99.90
29501;DHT22;16450;50.288;10.966;2023-01-16T19:14:33;4.50;99.90
29501;DHT22;16450;50.288;10.966;2023-01-16T19:17:35;4.40;99.90
29501;DHT22;16450;50.288;10.966;2023-01-16T19:20:35;4.50;99.90
29501;DHT22;16450;50.288;10.966;2023-01-16T19:23:36;4.50;99.90
29501;DHT22;16450;50.288;10.966;2023-01-16T19:26:37;4.50;99.90
29501;DHT22;16450;50.288;10.966;2023-01-16T19:29:48;4.50;99.90
29501;DHT22;16450;50.288;10.966;2023-01-16T19:32:48;4.50;99.90
29501;DHT22;16450;50.288;10.966;2023-01-16T19:35:49;4.50;99.90
29501;DHT22;16450;50.288;10.966;2023-01-16T19:38:51;4.40;99.90
29501;DHT22;16450;50.288;10.966;2023-01-16T19:41:53;4.50;99.90
29501;DHT22;16450;50.288;10.966;2023-01-16T19:45:12;4.50;99.90
29501;DHT22;16450;50.288;10.966;2023-01-16T19:48:32;4.50;99.90
29501;DHT22;16450;50.288;10.966;2023-01-16T19:51:32;4.50;99.90
29501;DHT22;16450;50.288;10.966;2023-01-16T19:54:34;4.50;99.90
29501;DHT22;16450;50.288;10.966;2023-01-16T19:57:35;4.50;99.90
29501;DHT22;16450;50.288;10.966;2023-01-16T20:00:36;4.50;99.90
29501;DHT22;16450;50.288;10.966;2023-01-16T20:03:36;4.50;99.90
29501;DHT22;16450;50.288;10.966;2023-01-16T20:06:37;4.50;99.90
29501;DHT22;16450;50.288;10.966;2023-01-16T20:09:39;4.50;99.90
29501;DHT22;16450;50.288;10.966;2023-01-16T20:12:41;4.50;99.90
29501;DHT22;16450;50.288;10.966;2023-01-16T20:15:41;4.50;99.90
29501;DHT22;16450;50.288;10.966;2023-01-16T20:18:42;4.40;99.90
29501;DHT22;16450;50.288;10.966;2023-01-16T20:21:43;4.40;99.90
29501;DHT22;16450;50.288;10.966;2023-01-16T20:24:44;4.40;99.90
29501;DHT22;16450;50.288;10.966;2023-01-16T20:27:44;4.30;99.90
29501;DHT22;16450;50.288;10.966;2023-01-16T20:30:45;4.30;99.90
29501;DHT22;16450;50.288;10.966;2023-01-16T20:33:47;4.20;99.90
29501;DHT22;16450;50.288;10.966;2023-01-16T20:36:50;4.20;99.90
29501;DHT22;16450;50.288;10.966;2023-01-16T20:39:51;4.10;99.90
29501;DHT22;16450;50.288;10.966;2023-01-16T20:42:52;4.00;99.90
29501;DHT22;16450;50.288;10.966;2023-01-16T20:46:11;3.90;99.90
29501;DHT22;16450;50.288;10.966;2023-01-16T20:49:12;3.90;99.90
29501;DHT22;16450;50.288;10.966;2023-01-16T20:52:17;3.80;99.90
29501;DHT22;16450;50.288;10.966;2023-01-16T20:55:19;3.80;99.90
29501;DHT22;16450;50.288;10.966;2023-01-16T20:58:19;3.80;99.90
29501;DHT22;16450;50.288;10.966;2023-01-16T21:01:20;3.70;99.90
29501;DHT22;16450;50.288;10.966;2023-01-16T21:04:21;3.70;99.90
29501;DHT22;16450;50.288;10.966;2023-01-16T21:07:22;3.70;99.90
29501;DHT22;16450;50.288;10.966;2023-01-16T21:10:23;3.60;99.90
29501;DHT22;16450;50.288;10.966;2023-01-16T21:13:23;3.60;99.90
29501;DHT22;16450;50.288;10.966;2023-01-16T21:16:45;3.60;99.90
29501;DHT22;16450;50.288;10.966;2023-01-16T21:20:06;3.60;99.90
29501;DHT22;16450;50.288;10.966;2023-01-16T21:23:25;3.60;99.90
29501;DHT22;16450;50.288;10.966;2023-01-16T21:26:26;3.60;99.90
29501;DHT22;16450;50.288;10.966;2023-01-16T21:29:27;3.50;99.90
29501;DHT22;16450;50.288;10.966;2023-01-16T21:32:28;3.50;99.90
29501;DHT22;16450;50.288;10.966;2023-01-16T21:35:29;3.50;99.90
29501;DHT22;16450;50.288;10.966;2023-01-16T21:38:31;3.50;99.90
29501;DHT22;16450;50.288;10.966;2023-01-16T21:41:31;3.50;99.90
29501;DHT22;16450;50.288;10.966;2023-01-16T21:44:52;3.40;99.90